sensor_id;sensor_type;location;lat;lon;timestamp;P1;durP1;ratioP1;P2;durP2;ratioP2
37409;SDS011;23275;48.914;12.566;2022-08-01T00:01:38;6.88;;;2.50;;
37409;SDS011;23275;48.914;12.566;2022-08-01T00:04:03;3.92;;;2.28;;
37409;SDS011;23275;48.914;12.566;2022-08-01T00:06:29;5.43;;;2.05;;
37409;SDS011;23275;48.914;12.566;2022-08-01T00:08:55;5.63;;;2.30;;
37409;SDS011;23275;48.914;12.566;2022-08-01T00:11:21;4.07;;;2.13;;
37409;SDS011;23275;48.914;12.566;2022-08-01T00:13:46;4.65;;;3.17;;
37409;SDS011;23275;48.914;12.566;2022-08-01T00:16:12;3.17;;;2.30;;
37409;SDS011;23275;48.914;12.566;2022-08-01T00:18:38;4.07;;;2.42;;
37409;SDS011;23275;48.914;12.566;2022-08-01T00:21:03;4.97;;;2.97;;
37409;SDS011;23275;48.914;12.566;2022-08-01T00:23:29;2.90;;;2.42;;
37409;SDS011;23275;48.914;12.566;2022-08-01T00:25:55;5.18;;;2.60;;
37409;SDS011;23275;48.914;12.566;2022-08-01T00:28:21;4.72;;;3.03;;
37409;SDS011;23275;48.914;12.566;2022-08-01T00:30:47;6.72;;;2.58;;
37409;SDS011;23275;48.914;12.566;2022-08-01T00:33:12;4.80;;;2.45;;
37409;SDS011;23275;48.914;12.566;2022-08-01T00:35:38;5.88;;;2.60;;
37409;SDS011;23275;48.914;12.566;2022-08-01T00:38:03;3.65;;;2.70;;
37409;SDS011;23275;48.914;12.566;2022-08-01T00:40:29;3.53;;;2.60;;
37409;SDS011;23275;48.914;12.566;2022-08-01T00:42:55;5.20;;;2.47;;
37409;SDS011;23275;48.914;12.566;2022-08-01T00:45:20;3.45;;;2.50;;
37409;SDS011;23275;48.914;12.566;2022-08-01T00:47:46;6.05;;;2.50;;
37409;SDS011;23275;48.914;12.566;2022-08-01T00:50:11;4.63;;;2.90;;
37409;SDS011;23275;48.914;12.566;2022-08-01T00:52:38;6.63;;;2.97;;
37409;SDS011;23275;48.914;12.566;2022-08-01T00:55:05;4.80;;;2.60;;
37409;SDS011;23275;48.914;12.566;2022-08-01T00:57:31;4.25;;;2.55;;
37409;SDS011;23275;48.914;12.566;2022-08-01T00:59:57;4.85;;;2.55;;
37409;SDS011;23275;48.914;12.566;2022-08-01T01:02:23;3.72;;;2.60;;
37409;SDS011;23275;48.914;12.566;2022-08-01T01:04:48;3.78;;;2.42;;
37409;SDS011;23275;48.914;12.566;2022-08-01T01:13:04;5.13;;;2.78;;
37409;SDS011;23275;48.914;12.566;2022-08-01T01:15:34;3.78;;;2.53;;
37409;SDS011;23275;48.914;12.566;2022-08-01T01:18:09;4.28;;;2.55;;
37409;SDS011;23275;48.914;12.566;2022-08-01T01:20:45;4.03;;;2.95;;
37409;SDS011;23275;48.914;12.566;2022-08-01T01:29:21;4.57;;;2.88;;
37409;SDS011;23275;48.914;12.566;2022-08-01T01:31:56;3.92;;;2.65;;
37409;SDS011;23275;48.914;12.566;2022-08-01T01:34:26;3.88;;;2.83;;
37409;SDS011;23275;48.914;12.566;2022-08-01T01:36:55;5.13;;;2.78;;
37409;SDS011;23275;48.914;12.566;2022-08-01T01:39:23;5.40;;;2.92;;
37409;SDS011;23275;48.914;12.566;2022-08-01T01:41:51;5.13;;;2.67;;
37409;SDS011;23275;48.914;12.566;2022-08-01T01:44:20;4.53;;;2.75;;
37409;SDS011;23275;48.914;12.566;2022-08-01T01:46:45;3.95;;;2.65;;
37409;SDS011;23275;48.914;12.566;2022-08-01T01:49:13;4.75;;;2.85;;
37409;SDS011;23275;48.914;12.566;2022-08-01T01:51:39;4.65;;;2.80;;
37409;SDS011;23275;48.914;12.566;2022-08-01T01:54:07;5.85;;;3.80;;
37409;SDS011;23275;48.914;12.566;2022-08-01T01:56:34;4.22;;;2.90;;
37409;SDS011;23275;48.914;12.566;2022-08-01T01:59:13;8.10;;;3.55;;
37409;SDS011;23275;48.914;12.566;2022-08-01T02:01:43;5.38;;;3.20;;
37409;SDS011;23275;48.914;12.566;2022-08-01T02:04:11;4.47;;;3.55;;
37409;SDS011;23275;48.914;12.566;2022-08-01T02:06:37;3.92;;;3.42;;
37409;SDS011;23275;48.914;12.566;2022-08-01T02:09:04;5.57;;;4.03;;
37409;SDS011;23275;48.914;12.566;2022-08-01T02:11:31;6.55;;;3.50;;
37409;SDS011;23275;48.914;12.566;2022-08-01T02:13:59;6.57;;;3.42;;
37409;SDS011;23275;48.914;12.566;2022-08-01T02:16:33;4.20;;;3.20;;
37409;SDS011;23275;48.914;12.566;2022-08-01T02:19:00;5.95;;;3.20;;
37409;SDS011;23275;48.914;12.566;2022-08-01T02:21:28;4.32;;;3.58;;
37409;SDS011;23275;48.914;12.566;2022-08-01T02:23:59;6.38;;;3.10;;
37409;SDS011;23275;48.914;12.566;2022-08-01T02:26:33;4.28;;;3.38;;
37409;SDS011;23275;48.914;12.566;2022-08-01T02:31:32;5.15;;;3.42;;
37409;SDS011;23275;48.914;12.566;2022-08-01T02:34:00;5.63;;;2.90;;
37409;SDS011;23275;48.914;12.566;2022-08-01T02:36:31;4.30;;;3.22;;
37409;SDS011;23275;48.914;12.566;2022-08-01T02:39:03;5.57;;;3.08;;
37409;SDS011;23275;48.914;12.566;2022-08-01T02:41:38;6.38;;;3.35;;
37409;SDS011;23275;48.914;12.566;2022-08-01T02:44:07;5.82;;;3.60;;
37409;SDS011;23275;48.914;12.566;2022-08-01T02:46:39;4.70;;;3.20;;
37409;SDS011;23275;48.914;12.566;2022-08-01T02:49:09;6.10;;;3.47;;
37409;SDS011;23275;48.914;12.566;2022-08-01T02:51:36;5.65;;;3.22;;
37409;SDS011;23275;48.914;12.566;2022-08-01T02:54:04;4.88;;;3.13;;
37409;SDS011;23275;48.914;12.566;2022-08-01T02:56:33;6.45;;;3.15;;
37409;SDS011;23275;48.914;12.566;2022-08-01T02:59:04;6.47;;;3.70;;
37409;SDS011;23275;48.914;12.566;2022-08-01T03:01:33;3.88;;;3.03;;
37409;SDS011;23275;48.914;12.566;2022-08-01T03:04:00;4.32;;;3.10;;
37409;SDS011;23275;48.914;12.566;2022-08-01T03:06:27;4.63;;;3.70;;
37409;SDS011;23275;48.914;12.566;2022-08-01T03:08:54;6.32;;;3.17;;
37409;SDS011;23275;48.914;12.566;2022-08-01T03:11:22;4.13;;;3.15;;
37409;SDS011;23275;48.914;12.566;2022-08-01T03:13:49;6.88;;;3.67;;
37409;SDS011;23275;48.914;12.566;2022-08-01T03:16:16;7.40;;;3.95;;
37409;SDS011;23275;48.914;12.566;2022-08-01T03:18:43;4.53;;;3.05;;
37409;SDS011;23275;48.914;12.566;2022-08-01T03:21:11;5.35;;;3.20;;
37409;SDS011;23275;48.914;12.566;2022-08-01T03:23:38;4.75;;;3.38;;
37409;SDS011;23275;48.914;12.566;2022-08-01T03:26:06;4.60;;;3.13;;
37409;SDS011;23275;48.914;12.566;2022-08-01T03:28:33;8.88;;;3.60;;
37409;SDS011;23275;48.914;12.566;2022-08-01T03:31:00;6.10;;;3.33;;
37409;SDS011;23275;48.914;12.566;2022-08-01T03:33:26;5.43;;;3.47;;
37409;SDS011;23275;48.914;12.566;2022-08-01T03:35:53;7.28;;;3.67;;
37409;SDS011;23275;48.914;12.566;2022-08-01T03:38:21;6.53;;;4.05;;
37409;SDS011;23275;48.914;12.566;2022-08-01T03:40:55;4.82;;;3.80;;
37409;SDS011;23275;48.914;12.566;2022-08-01T03:43:35;4.72;;;4.05;;
37409;SDS011;23275;48.914;12.566;2022-08-01T03:46:07;6.55;;;3.58;;
37409;SDS011;23275;48.914;12.566;2022-08-01T03:48:37;8.35;;;3.83;;
37409;SDS011;23275;48.914;12.566;2022-08-01T03:51:07;5.03;;;3.80;;
37409;SDS011;23275;48.914;12.566;2022-08-01T03:53:34;5.55;;;3.55;;
37409;SDS011;23275;48.914;12.566;2022-08-01T03:56:03;5.68;;;3.80;;
37409;SDS011;23275;48.914;12.566;2022-08-01T03:58:33;8.43;;;4.78;;
37409;SDS011;23275;48.914;12.566;2022-08-01T04:01:00;10.10;;;4.90;;
37409;SDS011;23275;48.914;12.566;2022-08-01T04:03:26;8.38;;;3.72;;
37409;SDS011;23275;48.914;12.566;2022-08-01T04:05:53;4.97;;;3.47;;
37409;SDS011;23275;48.914;12.566;2022-08-01T04:08:18;6.25;;;3.83;;
37409;SDS011;23275;48.914;12.566;2022-08-01T04:10:44;4.85;;;3.55;;
37409;SDS011;23275;48.914;12.566;2022-08-01T04:13:09;5.65;;;4.05;;
37409;SDS011;23275;48.914;12.566;2022-08-01T04:15:35;4.65;;;3.58;;
37409;SDS011;23275;48.914;12.566;2022-08-01T04:18:01;5.43;;;3.85;;
37409;SDS011;23275;48.914;12.566;2022-08-01T04:20:26;6.40;;;3.63;;
37409;SDS011;23275;48.914;12.566;2022-08-01T04:22:52;5.22;;;3.58;;
37409;SDS011;23275;48.914;12.566;2022-08-01T04:25:38;5.25;;;3.38;;
37409;SDS011;23275;48.914;12.566;2022-08-01T04:28:05;7.63;;;4.43;;
37409;SDS011;23275;48.914;12.566;2022-08-01T04:30:36;4.65;;;3.13;;
37409;SDS011;23275;48.914;12.566;2022-08-01T04:33:04;7.32;;;3.20;;
37409;SDS011;23275;48.914;12.566;2022-08-01T04:35:33;5.55;;;3.20;;
37409;SDS011;23275;48.914;12.566;2022-08-01T04:38:00;8.43;;;5.25;;
37409;SDS011;23275;48.914;12.566;2022-08-01T04:40:28;8.80;;;4.15;;
37409;SDS011;23275;48.914;12.566;2022-08-01T04:42:54;4.15;;;3.20;;
37409;SDS011;23275;48.914;12.566;2022-08-01T04:45:21;4.72;;;3.10;;
37409;SDS011;23275;48.914;12.566;2022-08-01T04:47:47;6.30;;;3.25;;
37409;SDS011;23275;48.914;12.566;2022-08-01T04:50:14;4.90;;;3.35;;
37409;SDS011;23275;48.914;12.566;2022-08-01T04:52:40;5.80;;;3.05;;
37409;SDS011;23275;48.914;12.566;2022-08-01T04:55:07;5.72;;;2.95;;
37409;SDS011;23275;48.914;12.566;2022-08-01T04:57:36;5.35;;;3.03;;
37409;SDS011;23275;48.914;12.566;2022-08-01T05:00:05;4.63;;;3.35;;
37409;SDS011;23275;48.914;12.566;2022-08-01T05:02:31;5.63;;;3.63;;
37409;SDS011;23275;48.914;12.566;2022-08-01T05:04:57;4.57;;;3.75;;
37409;SDS011;23275;48.914;12.566;2022-08-01T05:07:23;6.55;;;3.15;;
37409;SDS011;23275;48.914;12.566;2022-08-01T05:09:49;5.53;;;3.60;;
37409;SDS011;23275;48.914;12.566;2022-08-01T05:12:15;5.35;;;3.83;;
37409;SDS011;23275;48.914;12.566;2022-08-01T05:14:41;4.57;;;3.08;;
37409;SDS011;23275;48.914;12.566;2022-08-01T05:17:07;6.20;;;3.70;;
37409;SDS011;23275;48.914;12.566;2022-08-01T05:19:34;5.88;;;3.40;;
37409;SDS011;23275;48.914;12.566;2022-08-01T05:22:06;6.27;;;3.73;;
37409;SDS011;23275;48.914;12.566;2022-08-01T05:24:36;4.65;;;3.03;;
37409;SDS011;23275;48.914;12.566;2022-08-01T05:27:03;4.15;;;2.95;;
37409;SDS011;23275;48.914;12.566;2022-08-01T05:29:30;2.95;;;2.50;;
37409;SDS011;23275;48.914;12.566;2022-08-01T05:31:55;3.38;;;2.20;;
37409;SDS011;23275;48.914;12.566;2022-08-01T05:34:22;4.93;;;2.50;;
37409;SDS011;23275;48.914;12.566;2022-08-01T05:36:48;3.40;;;2.10;;
37409;SDS011;23275;48.914;12.566;2022-08-01T05:39:13;4.55;;;2.22;;
37409;SDS011;23275;48.914;12.566;2022-08-01T05:41:39;6.50;;;2.40;;
37409;SDS011;23275;48.914;12.566;2022-08-01T05:44:05;3.33;;;2.00;;
37409;SDS011;23275;48.914;12.566;2022-08-01T05:46:32;5.57;;;1.90;;
37409;SDS011;23275;48.914;12.566;2022-08-01T05:48:58;4.57;;;2.20;;
37409;SDS011;23275;48.914;12.566;2022-08-01T05:51:25;3.63;;;2.15;;
37409;SDS011;23275;48.914;12.566;2022-08-01T05:53:51;4.53;;;1.95;;
37409;SDS011;23275;48.914;12.566;2022-08-01T05:56:17;4.47;;;2.03;;
37409;SDS011;23275;48.914;12.566;2022-08-01T05:58:43;4.07;;;1.92;;
37409;SDS011;23275;48.914;12.566;2022-08-01T06:01:09;3.78;;;1.80;;
37409;SDS011;23275;48.914;12.566;2022-08-01T06:03:35;3.67;;;1.83;;
37409;SDS011;23275;48.914;12.566;2022-08-01T06:06:01;3.33;;;1.90;;
37409;SDS011;23275;48.914;12.566;2022-08-01T06:08:27;3.83;;;1.67;;
37409;SDS011;23275;48.914;12.566;2022-08-01T06:10:53;3.75;;;2.10;;
37409;SDS011;23275;48.914;12.566;2022-08-01T06:13:18;4.50;;;1.77;;
37409;SDS011;23275;48.914;12.566;2022-08-01T06:15:44;4.97;;;1.80;;
37409;SDS011;23275;48.914;12.566;2022-08-01T06:18:10;3.08;;;1.70;;
37409;SDS011;23275;48.914;12.566;2022-08-01T06:20:36;8.60;;;1.63;;
37409;SDS011;23275;48.914;12.566;2022-08-01T06:23:02;3.13;;;1.70;;
37409;SDS011;23275;48.914;12.566;2022-08-01T06:25:27;6.20;;;1.88;;
37409;SDS011;23275;48.914;12.566;2022-08-01T06:27:53;4.57;;;2.13;;
37409;SDS011;23275;48.914;12.566;2022-08-01T06:30:19;3.33;;;1.55;;
37409;SDS011;23275;48.914;12.566;2022-08-01T06:32:44;3.15;;;1.70;;
37409;SDS011;23275;48.914;12.566;2022-08-01T06:35:10;4.70;;;1.67;;
37409;SDS011;23275;48.914;12.566;2022-08-01T06:37:36;5.80;;;1.58;;
37409;SDS011;23275;48.914;12.566;2022-08-01T06:40:02;4.60;;;2.08;;
37409;SDS011;23275;48.914;12.566;2022-08-01T06:42:29;4.60;;;2.15;;
37409;SDS011;23275;48.914;12.566;2022-08-01T06:45:04;2.95;;;1.73;;
37409;SDS011;23275;48.914;12.566;2022-08-01T06:47:39;4.35;;;1.50;;
37409;SDS011;23275;48.914;12.566;2022-08-01T06:50:06;4.13;;;1.58;;
37409;SDS011;23275;48.914;12.566;2022-08-01T06:52:32;3.65;;;1.58;;
37409;SDS011;23275;48.914;12.566;2022-08-01T06:54:58;4.13;;;1.85;;
37409;SDS011;23275;48.914;12.566;2022-08-01T06:57:25;5.68;;;2.00;;
37409;SDS011;23275;48.914;12.566;2022-08-01T06:59:50;4.53;;;1.75;;
37409;SDS011;23275;48.914;12.566;2022-08-01T07:02:16;2.58;;;1.50;;
37409;SDS011;23275;48.914;12.566;2022-08-01T07:04:42;3.08;;;1.83;;
37409;SDS011;23275;48.914;12.566;2022-08-01T07:07:07;4.35;;;1.65;;
37409;SDS011;23275;48.914;12.566;2022-08-01T07:09:33;3.40;;;1.70;;
37409;SDS011;23275;48.914;12.566;2022-08-01T07:11:59;5.85;;;1.70;;
37409;SDS011;23275;48.914;12.566;2022-08-01T07:14:25;4.57;;;1.75;;
37409;SDS011;23275;48.914;12.566;2022-08-01T07:16:50;4.60;;;1.70;;
37409;SDS011;23275;48.914;12.566;2022-08-01T07:19:16;3.60;;;1.67;;
37409;SDS011;23275;48.914;12.566;2022-08-01T07:21:42;3.17;;;1.40;;
37409;SDS011;23275;48.914;12.566;2022-08-01T07:24:09;4.55;;;1.70;;
37409;SDS011;23275;48.914;12.566;2022-08-01T07:26:36;2.70;;;1.33;;
37409;SDS011;23275;48.914;12.566;2022-08-01T07:29:02;4.38;;;1.60;;
37409;SDS011;23275;48.914;12.566;2022-08-01T07:31:28;6.65;;;1.50;;
37409;SDS011;23275;48.914;12.566;2022-08-01T07:33:53;10.25;;;1.52;;
37409;SDS011;23275;48.914;12.566;2022-08-01T07:36:19;4.22;;;1.40;;
37409;SDS011;23275;48.914;12.566;2022-08-01T07:38:45;3.17;;;1.25;;
37409;SDS011;23275;48.914;12.566;2022-08-01T07:41:11;2.80;;;1.40;;
37409;SDS011;23275;48.914;12.566;2022-08-01T07:43:37;2.60;;;1.23;;
37409;SDS011;23275;48.914;12.566;2022-08-01T07:46:04;2.35;;;1.30;;
37409;SDS011;23275;48.914;12.566;2022-08-01T07:48:30;3.00;;;1.30;;
37409;SDS011;23275;48.914;12.566;2022-08-01T07:50:56;3.83;;;1.27;;
37409;SDS011;23275;48.914;12.566;2022-08-01T07:53:21;2.40;;;1.23;;
37409;SDS011;23275;48.914;12.566;2022-08-01T07:55:47;3.55;;;1.02;;
37409;SDS011;23275;48.914;12.566;2022-08-01T07:58:14;4.05;;;1.00;;
37409;SDS011;23275;48.914;12.566;2022-08-01T08:00:40;3.15;;;1.50;;
37409;SDS011;23275;48.914;12.566;2022-08-01T08:03:05;2.60;;;1.15;;
37409;SDS011;23275;48.914;12.566;2022-08-01T08:05:31;2.80;;;1.20;;
37409;SDS011;23275;48.914;12.566;2022-08-01T08:08:00;2.42;;;0.90;;
37409;SDS011;23275;48.914;12.566;2022-08-01T08:10:26;3.22;;;1.08;;
37409;SDS011;23275;48.914;12.566;2022-08-01T08:12:52;2.97;;;1.08;;
37409;SDS011;23275;48.914;12.566;2022-08-01T08:15:17;2.30;;;0.98;;
37409;SDS011;23275;48.914;12.566;2022-08-01T08:17:43;2.78;;;0.90;;
37409;SDS011;23275;48.914;12.566;2022-08-01T08:20:09;4.90;;;1.10;;
37409;SDS011;23275;48.914;12.566;2022-08-01T08:22:35;2.42;;;1.00;;
37409;SDS011;23275;48.914;12.566;2022-08-01T08:25:01;2.78;;;1.25;;
37409;SDS011;23275;48.914;12.566;2022-08-01T08:27:27;4.53;;;1.77;;
37409;SDS011;23275;48.914;12.566;2022-08-01T08:29:53;3.63;;;1.42;;
37409;SDS011;23275;48.914;12.566;2022-08-01T08:32:19;7.10;;;1.63;;
37409;SDS011;23275;48.914;12.566;2022-08-01T08:34:45;2.03;;;1.10;;
37409;SDS011;23275;48.914;12.566;2022-08-01T08:37:11;4.95;;;2.05;;
37409;SDS011;23275;48.914;12.566;2022-08-01T08:39:37;2.55;;;1.25;;
37409;SDS011;23275;48.914;12.566;2022-08-01T08:42:05;4.20;;;1.00;;
37409;SDS011;23275;48.914;12.566;2022-08-01T08:44:32;5.28;;;1.02;;
37409;SDS011;23275;48.914;12.566;2022-08-01T08:46:59;3.25;;;1.02;;
37409;SDS011;23275;48.914;12.566;2022-08-01T08:49:30;3.53;;;1.30;;
37409;SDS011;23275;48.914;12.566;2022-08-01T08:51:57;3.35;;;1.00;;
37409;SDS011;23275;48.914;12.566;2022-08-01T08:54:25;1.42;;;0.82;;
37409;SDS011;23275;48.914;12.566;2022-08-01T08:56:53;2.75;;;0.90;;
37409;SDS011;23275;48.914;12.566;2022-08-01T08:59:19;4.82;;;0.98;;
37409;SDS011;23275;48.914;12.566;2022-08-01T09:01:46;2.28;;;1.10;;
37409;SDS011;23275;48.914;12.566;2022-08-01T09:04:12;2.63;;;0.95;;
37409;SDS011;23275;48.914;12.566;2022-08-01T09:06:38;2.90;;;1.20;;
37409;SDS011;23275;48.914;12.566;2022-08-01T09:09:05;4.75;;;1.30;;
37409;SDS011;23275;48.914;12.566;2022-08-01T09:11:32;1.83;;;0.80;;
37409;SDS011;23275;48.914;12.566;2022-08-01T09:14:03;5.15;;;1.73;;
37409;SDS011;23275;48.914;12.566;2022-08-01T09:16:30;2.45;;;0.82;;
37409;SDS011;23275;48.914;12.566;2022-08-01T09:19:12;2.97;;;1.25;;
37409;SDS011;23275;48.914;12.566;2022-08-01T09:21:40;2.50;;;1.08;;
37409;SDS011;23275;48.914;12.566;2022-08-01T09:24:22;2.35;;;1.08;;
37409;SDS011;23275;48.914;12.566;2022-08-01T09:26:49;2.05;;;0.90;;
37409;SDS011;23275;48.914;12.566;2022-08-01T09:29:19;3.08;;;1.20;;
37409;SDS011;23275;48.914;12.566;2022-08-01T09:31:46;2.15;;;1.10;;
37409;SDS011;23275;48.914;12.566;2022-08-01T09:34:12;2.53;;;0.90;;
37409;SDS011;23275;48.914;12.566;2022-08-01T09:36:45;3.28;;;0.90;;
37409;SDS011;23275;48.914;12.566;2022-08-01T09:39:16;2.20;;;1.00;;
37409;SDS011;23275;48.914;12.566;2022-08-01T09:41:43;5.07;;;0.93;;
37409;SDS011;23275;48.914;12.566;2022-08-01T09:44:08;2.40;;;0.85;;
37409;SDS011;23275;48.914;12.566;2022-08-01T09:46:34;3.50;;;1.00;;
37409;SDS011;23275;48.914;12.566;2022-08-01T09:49:02;2.95;;;0.90;;
37409;SDS011;23275;48.914;12.566;2022-08-01T09:51:34;2.10;;;1.00;;
37409;SDS011;23275;48.914;12.566;2022-08-01T09:54:05;2.88;;;1.05;;
37409;SDS011;23275;48.914;12.566;2022-08-01T09:56:38;3.53;;;0.88;;
37409;SDS011;23275;48.914;12.566;2022-08-01T09:59:08;6.38;;;1.00;;
37409;SDS011;23275;48.914;12.566;2022-08-01T10:04:21;4.50;;;1.02;;
37409;SDS011;23275;48.914;12.566;2022-08-01T10:06:50;3.22;;;1.00;;
37409;SDS011;23275;48.914;12.566;2022-08-01T10:09:28;2.97;;;0.77;;
37409;SDS011;23275;48.914;12.566;2022-08-01T10:11:55;4.20;;;1.00;;
37409;SDS011;23275;48.914;12.566;2022-08-01T10:14:22;3.08;;;1.30;;
37409;SDS011;23275;48.914;12.566;2022-08-01T10:16:49;4.10;;;1.10;;
37409;SDS011;23275;48.914;12.566;2022-08-01T10:19:17;3.25;;;0.85;;
37409;SDS011;23275;48.914;12.566;2022-08-01T10:21:45;4.55;;;0.98;;
37409;SDS011;23275;48.914;12.566;2022-08-01T10:24:15;5.03;;;0.90;;
37409;SDS011;23275;48.914;12.566;2022-08-01T10:26:41;4.00;;;0.90;;
37409;SDS011;23275;48.914;12.566;2022-08-01T10:29:09;4.93;;;1.02;;
37409;SDS011;23275;48.914;12.566;2022-08-01T10:31:36;1.75;;;0.70;;
37409;SDS011;23275;48.914;12.566;2022-08-01T10:34:02;1.25;;;0.50;;
37409;SDS011;23275;48.914;12.566;2022-08-01T10:36:30;4.88;;;0.80;;
37409;SDS011;23275;48.914;12.566;2022-08-01T10:38:58;1.15;;;0.63;;
37409;SDS011;23275;48.914;12.566;2022-08-01T10:41:24;2.40;;;0.90;;
37409;SDS011;23275;48.914;12.566;2022-08-01T10:43:51;1.63;;;0.60;;
37409;SDS011;23275;48.914;12.566;2022-08-01T10:46:18;4.57;;;0.68;;
37409;SDS011;23275;48.914;12.566;2022-08-01T10:48:47;2.75;;;0.65;;
37409;SDS011;23275;48.914;12.566;2022-08-01T10:51:19;1.08;;;0.50;;
37409;SDS011;23275;48.914;12.566;2022-08-01T10:53:53;1.20;;;0.70;;
37409;SDS011;23275;48.914;12.566;2022-08-01T10:56:19;2.20;;;0.68;;
37409;SDS011;23275;48.914;12.566;2022-08-01T10:58:48;0.80;;;0.50;;
37409;SDS011;23275;48.914;12.566;2022-08-01T11:01:26;1.70;;;0.52;;
37409;SDS011;23275;48.914;12.566;2022-08-01T11:06:48;3.60;;;0.95;;
37409;SDS011;23275;48.914;12.566;2022-08-01T11:09:40;1.90;;;0.80;;
37409;SDS011;23275;48.914;12.566;2022-08-01T11:12:23;1.92;;;0.88;;
37409;SDS011;23275;48.914;12.566;2022-08-01T11:20:16;2.88;;;0.60;;
37409;SDS011;23275;48.914;12.566;2022-08-01T11:38:35;1.05;;;0.60;;
37409;SDS011;23275;48.914;12.566;2022-08-01T11:52:03;1.90;;;0.70;;
37409;SDS011;23275;48.914;12.566;2022-08-01T11:54:35;2.30;;;0.80;;
37409;SDS011;23275;48.914;12.566;2022-08-01T11:57:05;2.90;;;0.80;;
37409;SDS011;23275;48.914;12.566;2022-08-01T11:59:49;1.15;;;0.57;;
37409;SDS011;23275;48.914;12.566;2022-08-01T12:04:54;5.28;;;0.75;;
37409;SDS011;23275;48.914;12.566;2022-08-01T12:07:21;1.40;;;0.63;;
37409;SDS011;23275;48.914;12.566;2022-08-01T12:09:48;3.83;;;0.88;;
37409;SDS011;23275;48.914;12.566;2022-08-01T12:12:32;3.17;;;0.77;;
37409;SDS011;23275;48.914;12.566;2022-08-01T12:15:00;4.20;;;1.13;;
37409;SDS011;23275;48.914;12.566;2022-08-01T12:17:43;2.00;;;0.60;;
37409;SDS011;23275;48.914;12.566;2022-08-01T12:20:10;6.07;;;0.93;;
37409;SDS011;23275;48.914;12.566;2022-08-01T12:22:39;2.53;;;0.80;;
37409;SDS011;23275;48.914;12.566;2022-08-01T12:25:12;2.85;;;0.55;;
37409;SDS011;23275;48.914;12.566;2022-08-01T12:27:40;5.97;;;0.80;;
37409;SDS011;23275;48.914;12.566;2022-08-01T12:30:10;1.63;;;0.60;;
37409;SDS011;23275;48.914;12.566;2022-08-01T12:32:38;3.58;;;0.70;;
37409;SDS011;23275;48.914;12.566;2022-08-01T12:35:06;2.60;;;0.70;;
37409;SDS011;23275;48.914;12.566;2022-08-01T12:37:43;5.90;;;0.80;;
37409;SDS011;23275;48.914;12.566;2022-08-01T12:42:41;1.25;;;0.60;;
37409;SDS011;23275;48.914;12.566;2022-08-01T12:45:09;2.55;;;0.60;;
37409;SDS011;23275;48.914;12.566;2022-08-01T12:47:41;1.50;;;0.75;;
37409;SDS011;23275;48.914;12.566;2022-08-01T12:50:18;4.38;;;0.60;;
37409;SDS011;23275;48.914;12.566;2022-08-01T12:52:45;5.28;;;0.70;;
37409;SDS011;23275;48.914;12.566;2022-08-01T12:55:15;3.47;;;0.80;;
37409;SDS011;23275;48.914;12.566;2022-08-01T12:57:43;2.35;;;0.50;;
37409;SDS011;23275;48.914;12.566;2022-08-01T13:00:21;5.35;;;0.75;;
37409;SDS011;23275;48.914;12.566;2022-08-01T13:02:49;2.45;;;0.70;;
37409;SDS011;23275;48.914;12.566;2022-08-01T13:05:42;4.60;;;0.70;;
37409;SDS011;23275;48.914;12.566;2022-08-01T13:08:18;2.87;;;0.63;;
37409;SDS011;23275;48.914;12.566;2022-08-01T13:10:45;4.72;;;0.85;;
37409;SDS011;23275;48.914;12.566;2022-08-01T13:13:12;3.97;;;0.65;;
37409;SDS011;23275;48.914;12.566;2022-08-01T13:15:39;2.53;;;0.70;;
37409;SDS011;23275;48.914;12.566;2022-08-01T13:18:28;1.52;;;0.68;;
37409;SDS011;23275;48.914;12.566;2022-08-01T13:26:43;3.75;;;0.77;;
37409;SDS011;23275;48.914;12.566;2022-08-01T13:29:13;2.60;;;0.60;;
37409;SDS011;23275;48.914;12.566;2022-08-01T13:31:40;3.80;;;0.70;;
37409;SDS011;23275;48.914;12.566;2022-08-01T13:34:07;0.90;;;0.57;;
37409;SDS011;23275;48.914;12.566;2022-08-01T13:36:33;1.33;;;0.75;;
37409;SDS011;23275;48.914;12.566;2022-08-01T13:38:59;1.30;;;0.50;;
37409;SDS011;23275;48.914;12.566;2022-08-01T13:41:44;3.63;;;0.73;;
37409;SDS011;23275;48.914;12.566;2022-08-01T13:44:10;3.17;;;0.73;;
37409;SDS011;23275;48.914;12.566;2022-08-01T13:46:37;2.83;;;0.60;;
37409;SDS011;23275;48.914;12.566;2022-08-01T13:49:03;2.75;;;0.60;;
37409;SDS011;23275;48.914;12.566;2022-08-01T13:51:30;1.45;;;0.60;;
37409;SDS011;23275;48.914;12.566;2022-08-01T13:53:56;1.48;;;0.65;;
37409;SDS011;23275;48.914;12.566;2022-08-01T13:56:21;1.38;;;0.77;;
37409;SDS011;23275;48.914;12.566;2022-08-01T13:58:47;2.15;;;0.60;;
37409;SDS011;23275;48.914;12.566;2022-08-01T14:01:13;2.10;;;0.65;;
37409;SDS011;23275;48.914;12.566;2022-08-01T14:03:39;2.67;;;0.70;;
37409;SDS011;23275;48.914;12.566;2022-08-01T14:06:05;3.05;;;0.50;;
37409;SDS011;23275;48.914;12.566;2022-08-01T14:08:31;2.28;;;0.60;;
37409;SDS011;23275;48.914;12.566;2022-08-01T14:10:56;1.58;;;0.70;;
37409;SDS011;23275;48.914;12.566;2022-08-01T14:13:24;2.05;;;0.60;;
37409;SDS011;23275;48.914;12.566;2022-08-01T14:15:50;1.98;;;0.50;;
37409;SDS011;23275;48.914;12.566;2022-08-01T14:18:16;2.58;;;0.68;;
37409;SDS011;23275;48.914;12.566;2022-08-01T14:20:42;1.13;;;0.50;;
37409;SDS011;23275;48.914;12.566;2022-08-01T14:23:08;3.78;;;0.65;;
37409;SDS011;23275;48.914;12.566;2022-08-01T14:25:35;3.50;;;0.55;;
37409;SDS011;23275;48.914;12.566;2022-08-01T14:28:05;2.00;;;0.60;;
37409;SDS011;23275;48.914;12.566;2022-08-01T14:30:31;1.38;;;0.82;;
37409;SDS011;23275;48.914;12.566;2022-08-01T14:32:57;4.38;;;0.60;;
37409;SDS011;23275;48.914;12.566;2022-08-01T14:35:23;3.20;;;0.50;;
37409;SDS011;23275;48.914;12.566;2022-08-01T14:37:50;1.67;;;0.70;;
37409;SDS011;23275;48.914;12.566;2022-08-01T14:40:16;1.40;;;0.60;;
37409;SDS011;23275;48.914;12.566;2022-08-01T14:42:42;1.38;;;0.70;;
37409;SDS011;23275;48.914;12.566;2022-08-01T14:45:09;0.98;;;0.47;;
37409;SDS011;23275;48.914;12.566;2022-08-01T14:47:36;1.70;;;0.60;;
37409;SDS011;23275;48.914;12.566;2022-08-01T14:50:07;1.70;;;0.60;;
37409;SDS011;23275;48.914;12.566;2022-08-01T14:52:34;1.20;;;0.60;;
37409;SDS011;23275;48.914;12.566;2022-08-01T14:55:01;3.20;;;0.60;;
37409;SDS011;23275;48.914;12.566;2022-08-01T14:57:27;2.25;;;0.70;;
37409;SDS011;23275;48.914;12.566;2022-08-01T14:59:53;1.70;;;0.52;;
37409;SDS011;23275;48.914;12.566;2022-08-01T15:02:20;1.95;;;0.70;;
37409;SDS011;23275;48.914;12.566;2022-08-01T15:04:46;1.10;;;0.55;;
37409;SDS011;23275;48.914;12.566;2022-08-01T15:07:13;1.98;;;0.60;;
37409;SDS011;23275;48.914;12.566;2022-08-01T15:09:39;3.25;;;0.68;;
37409;SDS011;23275;48.914;12.566;2022-08-01T15:12:05;1.83;;;0.65;;
37409;SDS011;23275;48.914;12.566;2022-08-01T15:14:31;1.80;;;0.52;;
37409;SDS011;23275;48.914;12.566;2022-08-01T15:17:20;1.30;;;0.50;;
37409;SDS011;23275;48.914;12.566;2022-08-01T15:19:48;1.67;;;0.50;;
37409;SDS011;23275;48.914;12.566;2022-08-01T15:22:15;3.75;;;0.60;;
37409;SDS011;23275;48.914;12.566;2022-08-01T15:24:41;3.47;;;0.60;;
37409;SDS011;23275;48.914;12.566;2022-08-01T15:27:08;1.05;;;0.30;;
37409;SDS011;23275;48.914;12.566;2022-08-01T15:29:34;5.50;;;0.90;;
37409;SDS011;23275;48.914;12.566;2022-08-01T15:32:03;1.15;;;0.60;;
37409;SDS011;23275;48.914;12.566;2022-08-01T15:34:30;1.45;;;0.63;;
37409;SDS011;23275;48.914;12.566;2022-08-01T15:36:56;2.88;;;1.00;;
37409;SDS011;23275;48.914;12.566;2022-08-01T15:39:22;3.63;;;1.38;;
37409;SDS011;23275;48.914;12.566;2022-08-01T15:41:48;1.98;;;0.60;;